Time;durP1;ratioP1;P1;durP2;ratioP2;P2;SDS_P1;SDS_P2;PMS_P1;PMS_P2;Temp;Humidity;BMP_temperature;BMP_pressure;BME280_temperature;BME280_humidity;BME280_pressure;Samples;Min_cycle;Max_cycle;Signal;HPM_P1;HPM_P2
2021/09/02 00:01:56;;;;;;;;;19.50;17.50;;;;;19.08;52.55;102188.84;5024026;28;45539;-78
2021/09/02 00:04:23;;;;;;;;;17.50;15.75;;;;;19.07;52.98;102184.44;5033326;28;45369;-80
2021/09/02 00:06:49;;;;;;;;;18.00;13.50;;;;;19.00;52.90;102183.34;5033877;28;45456;-80
2021/09/02 00:09:15;;;;;;;;;15.75;13.00;;;;;18.94;53.26;102185.78;5036406;28;45563;-79
2021/09/02 00:11:40;;;;;;;;;16.50;14.00;;;;;18.92;53.02;102187.44;5034937;28;45936;-80
2021/09/02 00:14:06;;;;;;;;;18.25;16.75;;;;;18.92;52.94;102190.94;5016218;28;45438;-79
2021/09/02 00:16:31;;;;;;;;;15.50;15.00;;;;;18.93;52.83;102194.47;5017181;28;45396;-79
2021/09/02 00:18:57;;;;;;;;;17.00;16.75;;;;;18.92;53.03;102196.19;5034528;28;45275;-80
2021/09/02 00:21:23;;;;;;;;;14.25;13.25;;;;;18.91;53.24;102185.66;5034441;28;45354;-79
2021/09/02 00:23:48;;;;;;;;;19.50;15.00;;;;;18.91;52.75;102191.78;5031697;28;45332;-79
2021/09/02 00:26:14;;;;;;;;;14.25;14.25;;;;;18.90;53.18;102187.38;5032822;28;45472;-79
2021/09/02 00:28:40;;;;;;;;;18.50;16.00;;;;;18.88;53.07;102186.47;5033435;28;45554;-79
2021/09/02 00:31:06;;;;;;;;;17.00;15.00;;;;;18.85;53.17;102178.47;5036609;28;45541;-80
2021/09/02 00:33:32;;;;;;;;;18.50;15.00;;;;;18.81;53.22;102177.50;5019295;28;45259;-80
2021/09/02 00:35:57;;;;;;;;;17.50;14.25;;;;;18.80;53.27;102180.94;5019598;28;45364;-78
2021/09/02 00:38:23;;;;;;;;;14.50;14.50;;;;;18.78;53.68;102172.13;5037952;28;45485;-80
2021/09/02 00:40:49;;;;;;;;;15.25;13.25;;;;;18.79;53.49;102173.03;5039099;28;45436;-79
2021/09/02 00:43:14;;;;;;;;;15.50;12.25;;;;;18.75;54.04;102164.16;5036822;28;46858;-79
2021/09/02 00:45:40;;;;;;;;;18.50;15.25;;;;;18.74;53.47;102161.47;5028811;28;45471;-79
2021/09/02 00:48:05;;;;;;;;;14.00;13.25;;;;;18.71;53.60;102171.03;5025108;28;45558;-78
2021/09/02 00:50:32;;;;;;;;;14.25;14.25;;;;;18.70;53.46;102166.63;5037476;28;45465;-79
2021/09/02 00:52:58;;;;;;;;;19.75;14.25;;;;;18.70;53.39;102171.88;5020718;28;45305;-80
2021/09/02 00:55:24;;;;;;;;;14.25;13.25;;;;;18.70;53.60;102174.50;5023341;28;45360;-80
2021/09/02 00:57:50;;;;;;;;;16.25;12.25;;;;;18.67;53.39;102168.25;5038821;28;45488;-79
2021/09/02 01:00:18;;;;;;;;;20.00;15.50;;;;;18.64;53.79;102168.16;5053896;28;46244;-80
2021/09/02 01:02:45;;;;;;;;;18.00;16.00;;;;;18.64;53.72;102171.69;5019916;28;45512;-80
2021/09/02 01:05:13;;;;;;;;;17.25;16.00;;;;;18.65;53.74;102167.31;5020243;28;45377;-78
2021/09/02 01:07:40;;;;;;;;;15.50;13.50;;;;;18.67;53.90;102169.16;5021244;28;45473;-80
2021/09/02 01:10:06;;;;;;;;;15.00;13.00;;;;;18.66;53.58;102170.00;5036008;28;45669;-80
2021/09/02 01:12:51;;;;;;;;;23.00;15.75;;;;;18.68;53.29;102168.31;5038660;28;45428;-80
2021/09/02 01:15:16;;;;;;;;;18.00;14.50;;;;;18.69;53.88;102174.47;5032303;28;45217;-78
2021/09/02 01:17:52;;;;;;;;;14.25;13.50;;;;;18.63;53.87;102168.97;5019240;28;45773;-80
2021/09/02 01:20:20;;;;;;;;;21.75;14.75;;;;;18.62;54.04;102172.47;5030929;28;46020;-81
2021/09/02 01:22:48;;;;;;;;;21.00;17.00;;;;;18.57;53.90;102169.72;5052285;28;45703;-81
2021/09/02 01:25:16;;;;;;;;;16.50;14.25;;;;;18.52;54.09;102159.03;5038835;28;45216;-80
2021/09/02 01:27:44;;;;;;;;;18.00;16.25;;;;;18.47;53.91;102157.09;5039029;28;45302;-80
2021/09/02 01:30:13;;;;;;;;;20.00;17.00;;;;;18.42;54.29;102154.31;5026106;28;47931;-80
2021/09/02 01:32:41;;;;;;;;;16.25;12.75;;;;;18.41;53.98;102150.81;5036398;28;45846;-80
2021/09/02 01:35:09;;;;;;;;;18.25;13.75;;;;;18.40;54.38;102148.16;5038744;28;45322;-78
2021/09/02 01:37:46;;;;;;;;;16.50;13.50;;;;;18.41;54.46;102148.19;5023999;28;45546;-79
2021/09/02 01:40:16;;;;;;;;;16.25;14.25;;;;;18.40;54.45;102137.66;5018487;28;45911;-80
2021/09/02 01:42:43;;;;;;;;;14.50;10.75;;;;;18.40;54.45;102137.66;5018775;28;45289;-81
2021/09/02 01:45:09;;;;;;;;;20.50;16.25;;;;;18.40;54.39;102137.66;5018462;28;45384;-80
2021/09/02 01:47:35;;;;;;;;;15.50;15.25;;;;;18.38;54.26;102136.72;5029737;28;45861;-79
2021/09/02 01:50:16;;;;;;;;;18.00;16.75;;;;;18.38;54.38;102137.59;5031351;28;45933;-77
2021/09/02 01:52:44;;;;;;;;;18.50;17.25;;;;;18.34;54.32;102138.34;5036327;28;46239;-81
2021/09/02 01:55:10;;;;;;;;;17.50;16.50;;;;;18.31;54.40;102139.94;5033007;28;45515;-81
2021/09/02 01:57:37;;;;;;;;;23.00;18.00;;;;;18.28;54.32;102139.84;5036612;28;45762;-80
2021/09/02 02:00:05;;;;;;;;;18.50;14.75;;;;;18.25;54.86;102133.66;5031285;28;46064;-81
2021/09/02 02:02:30;;;;;;;;;20.50;18.25;;;;;18.25;54.87;102131.03;5026494;28;45877;-80
2021/09/02 02:04:56;;;;;;;;;18.25;14.00;;;;;18.26;54.64;102129.31;5038308;28;45489;-80
2021/09/02 02:07:22;;;;;;;;;15.25;14.25;;;;;18.25;54.94;102133.66;5022671;28;45603;-81
2021/09/02 02:09:47;;;;;;;;;18.75;14.75;;;;;18.25;54.91;102127.50;5021615;28;45442;-80
2021/09/02 02:12:13;;;;;;;;;18.25;13.25;;;;;18.24;55.08;102131.88;5037430;28;45500;-79
2021/09/02 02:14:38;;;;;;;;;22.25;19.25;;;;;18.19;54.83;102129.94;5022789;28;45279;-80
2021/09/02 02:17:04;;;;;;;;;15.50;15.50;;;;;18.16;55.12;102128.13;5027764;28;45325;-80
2021/09/02 02:19:30;;;;;;;;;22.00;16.50;;;;;18.15;54.92;102118.47;5037774;28;46192;-80
2021/09/02 02:21:57;;;;;;;;;19.75;16.25;;;;;18.14;55.03;102118.41;5033806;28;45464;-80
2021/09/02 02:24:22;;;;;;;;;23.75;18.00;;;;;18.13;55.03;102120.13;5017935;28;45450;-81
2021/09/02 02:26:48;;;;;;;;;19.50;18.75;;;;;18.11;55.20;102111.31;5020968;28;45582;-80
2021/09/02 02:29:14;;;;;;;;;19.00;16.75;;;;;18.09;55.08;102113.00;5034818;28;45819;-80
2021/09/02 02:31:39;;;;;;;;;18.00;16.75;;;;;18.04;55.45;102107.59;5030011;28;45532;-79
2021/09/02 02:34:05;;;;;;;;;20.50;18.50;;;;;18.02;55.28;102105.75;5017550;28;45430;-80
2021/09/02 02:36:31;;;;;;;;;22.25;19.25;;;;;17.98;55.50;102115.25;5019742;28;45235;-80
2021/09/02 02:38:57;;;;;;;;;20.50;18.50;;;;;17.97;55.47;102120.44;5029874;28;45877;-81
2021/09/02 02:41:22;;;;;;;;;23.25;20.25;;;;;17.94;55.39;102118.56;5029269;28;45434;-80
2021/09/02 02:43:48;;;;;;;;;19.25;15.75;;;;;17.92;55.77;102121.13;5034250;28;45621;-81
2021/09/02 02:46:14;;;;;;;;;19.75;18.75;;;;;17.88;55.62;102108.75;5040608;28;45598;-80
2021/09/02 02:48:40;;;;;;;;;23.25;19.25;;;;;17.87;55.80;102109.59;5038821;28;47582;-80
2021/09/02 02:51:05;;;;;;;;;20.25;19.00;;;;;17.86;55.67;102110.44;5037580;28;45416;-80
2021/09/02 02:53:31;;;;;;;;;24.00;20.00;;;;;17.86;55.76;102101.69;5023951;28;45493;-79
2021/09/02 02:55:57;;;;;;;;;22.25;20.25;;;;;17.85;55.52;102098.19;5031012;28;45318;-78
2021/09/02 02:58:23;;;;;;;;;25.00;20.25;;;;;17.86;55.91;102099.97;5017408;28;46172;-79
2021/09/02 03:00:48;;;;;;;;;21.00;19.25;;;;;17.85;55.44;102095.56;5016944;28;45333;-79
2021/09/02 03:03:14;;;;;;;;;21.25;18.00;;;;;17.85;55.60;102090.31;5029524;28;45615;-79
2021/09/02 03:05:39;;;;;;;;;26.00;21.50;;;;;17.82;55.77;102077.09;5025389;28;45197;-80
2021/09/02 03:08:06;;;;;;;;;21.25;20.50;;;;;17.83;55.65;102083.22;5032447;28;46709;-78
2021/09/02 03:10:31;;;;;;;;;27.00;23.00;;;;;17.81;55.73;102079.69;5015094;28;45907;-78
2021/09/02 03:12:57;;;;;;;;;27.00;24.50;;;;;17.78;55.78;102086.59;5022066;28;45500;-78
2021/09/02 03:15:23;;;;;;;;;23.75;19.75;;;;;17.73;56.04;102085.53;5018057;28;45596;-78
2021/09/02 03:17:49;;;;;;;;;27.50;20.75;;;;;17.75;56.02;102096.94;5015679;28;46263;-78
2021/09/02 03:20:16;;;;;;;;;23.50;19.75;;;;;17.77;56.25;102103.13;5020569;28;46678;-79
2021/09/02 03:22:41;;;;;;;;;22.75;20.00;;;;;17.77;56.00;102103.13;5023274;28;45853;-79
2021/09/02 03:25:08;;;;;;;;;23.75;20.50;;;;;17.77;55.89;102097.00;5017151;28;45635;-78
2021/09/02 03:27:35;;;;;;;;;24.00;22.00;;;;;17.76;55.98;102100.47;5015303;28;46204;-77
2021/09/02 03:30:01;;;;;;;;;31.50;23.50;;;;;17.71;55.66;102099.41;5033654;28;45255;-79
2021/09/02 03:32:26;;;;;;;;;27.50;23.50;;;;;17.69;55.89;102098.44;5031426;28;45478;-78
2021/09/02 03:34:52;;;;;;;;;29.00;20.25;;;;;17.64;56.00;102091.34;5029247;28;45430;-77
2021/09/02 03:37:17;;;;;;;;;32.25;24.50;;;;;17.62;56.02;102094.72;5036527;28;45892;-77
2021/09/02 03:39:43;;;;;;;;;24.25;21.50;;;;;17.59;56.03;102084.16;5017856;28;45550;-77
2021/09/02 03:42:09;;;;;;;;;31.75;27.00;;;;;17.58;56.16;102078.00;5017441;28;45334;-77
2021/09/02 03:44:34;;;;;;;;;23.75;22.50;;;;;17.59;56.36;102079.78;5017302;28;45255;-77
2021/09/02 03:47:00;;;;;;;;;23.75;21.25;;;;;17.61;56.21;102070.28;5016551;28;46247;-76
2021/09/02 03:49:25;;;;;;;;;29.00;22.25;;;;;17.61;56.28;102062.41;5016539;28;45355;-76
2021/09/02 03:51:51;;;;;;;;;25.75;21.75;;;;;17.60;56.18;102060.63;5033854;28;45322;-77
2021/09/02 03:54:17;;;;;;;;;26.25;23.50;;;;;17.60;56.26;102057.13;5022656;28;45540;-77
2021/09/02 03:56:42;;;;;;;;;27.75;23.50;;;;;17.59;56.20;102055.34;5016498;28;45914;-78
2021/09/02 03:59:08;;;;;;;;;28.50;24.25;;;;;17.58;55.97;102056.19;5016477;28;45384;-77
2021/09/02 04:01:34;;;;;;;;;28.75;24.00;;;;;17.56;56.19;102060.47;5016626;28;45176;-77
2021/09/02 04:03:59;;;;;;;;;27.25;20.25;;;;;17.54;56.34;102060.41;5016672;28;45704;-78
2021/09/02 04:06:25;;;;;;;;;32.50;25.00;;;;;17.51;56.10;102054.16;5021799;28;45791;-77
2021/09/02 04:08:51;;;;;;;;;29.25;25.25;;;;;17.47;56.52;102063.63;5036333;28;45231;-77
2021/09/02 04:11:16;;;;;;;;;27.50;24.00;;;;;17.46;56.64;102070.59;5036533;28;45382;-77
2021/09/02 04:13:42;;;;;;;;;34.00;29.50;;;;;17.46;56.63;102080.16;5036308;28;45320;-78
2021/09/02 04:16:08;;;;;;;;;26.50;22.00;;;;;17.45;56.59;102084.53;5035120;28;46722;-78
2021/09/02 04:18:34;;;;;;;;;33.00;24.00;;;;;17.40;56.83;102085.19;5036047;28;45879;-78
2021/09/02 04:21:04;;;;;;;;;29.25;24.75;;;;;17.41;56.54;102089.59;5036216;28;45414;-78
2021/09/02 04:23:31;;;;;;;;;24.50;22.25;;;;;17.35;56.79;102085.03;5027127;28;45402;-78
2021/09/02 04:25:57;;;;;;;;;29.50;24.75;;;;;17.33;56.89;102084.06;5017314;28;46089;-77
2021/09/02 04:28:22;;;;;;;;;31.50;27.75;;;;;17.31;56.60;102085.72;5016753;28;45247;-77
2021/09/02 04:30:48;;;;;;;;;24.50;23.25;;;;;17.30;56.45;102074.38;5017113;28;45610;-78
2021/09/02 04:33:13;;;;;;;;;30.75;25.25;;;;;17.30;56.91;102078.72;5016227;28;45513;-80
2021/09/02 04:35:39;;;;;;;;;28.25;24.50;;;;;17.30;56.96;102074.38;5016285;28;45632;-81
2021/09/02 04:38:05;;;;;;;;;33.50;25.75;;;;;17.31;56.94;102077.88;5016394;28;45406;-78
2021/09/02 04:40:30;;;;;;;;;29.75;24.50;;;;;17.28;56.83;102078.66;5016321;28;45447;-80
2021/09/02 04:42:56;;;;;;;;;27.50;24.25;;;;;17.26;56.90;102077.72;5016360;28;45300;-79
2021/09/02 04:45:21;;;;;;;;;25.75;22.50;;;;;17.23;56.85;102081.94;5015763;28;45636;-79
2021/09/02 04:47:50;;;;;;;;;26.75;23.75;;;;;17.21;57.06;102078.38;5015914;28;45418;-79
2021/09/02 04:50:15;;;;;;;;;27.25;22.00;;;;;17.20;56.77;102074.88;5015901;28;45291;-80
2021/09/02 04:52:41;;;;;;;;;26.50;25.25;;;;;17.19;57.12;102075.72;5024172;28;45509;-80
2021/09/02 04:55:08;;;;;;;;;30.50;26.25;;;;;17.15;57.06;102076.41;5015901;28;45473;-79
2021/09/02 04:57:33;;;;;;;;;28.50;26.25;;;;;17.13;56.96;102081.59;5021245;28;45740;-79
2021/09/02 04:59:59;;;;;;;;;34.00;26.50;;;;;17.11;57.20;102079.78;5035746;28;45308;-80
2021/09/02 05:02:24;;;;;;;;;29.00;25.75;;;;;17.07;57.22;102072.63;5035530;28;45456;-80
2021/09/02 05:04:50;;;;;;;;;32.75;28.00;;;;;17.10;57.12;102078.84;5040283;28;45388;-79
2021/09/02 05:07:15;;;;;;;;;30.00;25.50;;;;;17.11;57.01;102078.03;5043101;28;45332;-80
2021/09/02 05:09:41;;;;;;;;;25.25;23.50;;;;;17.14;57.29;102078.16;5039935;28;45381;-79
2021/09/02 05:12:07;;;;;;;;;37.50;31.75;;;;;17.20;56.99;102080.09;5030007;28;45594;-77
2021/09/02 05:14:32;;;;;;;;;38.50;28.75;;;;;17.21;57.07;102075.75;5035205;28;45335;-77
2021/09/02 05:16:58;;;;;;;;;29.25;25.50;;;;;17.23;56.92;102072.34;5035667;28;45309;-78
2021/09/02 05:19:23;;;;;;;;;33.50;25.50;;;;;17.26;56.78;102072.47;5038766;28;45317;-77
2021/09/02 05:21:49;;;;;;;;;35.75;31.75;;;;;17.31;56.97;102070.94;5037913;28;45226;-77
2021/09/02 05:24:15;;;;;;;;;38.75;29.25;;;;;17.33;56.87;102071.84;5038772;28;46213;-78
2021/09/02 05:26:40;;;;;;;;;39.25;30.25;;;;;17.34;56.87;102067.53;5037211;28;45288;-77
2021/09/02 05:29:06;;;;;;;;;42.25;32.75;;;;;17.33;56.88;102070.97;5024620;28;45358;-78
2021/09/02 05:31:32;;;;;;;;;42.50;32.00;;;;;17.34;56.79;102067.53;5018916;28;45260;-77
2021/09/02 05:33:57;;;;;;;;;40.00;33.00;;;;;17.37;56.47;102074.59;5037229;28;45599;-78
2021/09/02 05:36:23;;;;;;;;;42.75;36.25;;;;;17.33;56.41;102064.00;5038470;28;45310;-77
2021/09/02 05:38:49;;;;;;;;;36.25;32.00;;;;;17.34;56.55;102064.91;5038145;28;45386;-78
2021/09/02 05:41:14;;;;;;;;;45.75;33.25;;;;;17.33;56.53;102053.53;5038559;28;45384;-78
2021/09/02 05:43:40;;;;;;;;;38.75;33.50;;;;;17.29;56.49;102059.50;5034988;28;45516;-76
2021/09/02 05:46:05;;;;;;;;;39.00;32.75;;;;;17.30;56.66;102061.31;5027428;28;45477;-77
2021/09/02 05:48:31;;;;;;;;;41.75;34.75;;;;;17.30;56.60;102066.53;5038414;28;45505;-79
2021/09/02 05:50:57;;;;;;;;;44.25;34.25;;;;;17.28;56.74;102062.06;5038486;28;45450;-79
2021/09/02 05:53:23;;;;;;;;;41.75;33.75;;;;;17.25;56.80;102064.56;5035654;28;45396;-77
2021/09/02 05:55:50;;;;;;;;;41.00;34.50;;;;;17.26;56.92;102071.59;5026125;28;45318;-78
2021/09/02 05:58:17;;;;;;;;;41.00;33.75;;;;;17.28;56.72;102069.91;5027252;28;45454;-78
2021/09/02 06:00:42;;;;;;;;;36.25;33.75;;;;;17.29;56.57;102067.38;5028108;28;45719;-77
2021/09/02 06:03:08;;;;;;;;;42.25;32.25;;;;;17.29;56.44;102063.84;5029533;28;45520;-77
2021/09/02 06:05:34;;;;;;;;;31.00;26.50;;;;;17.26;56.72;102066.38;5022321;28;45517;-76
2021/09/02 06:07:59;;;;;;;;;39.50;32.75;;;;;17.25;56.88;102068.06;5020578;28;45453;-76
2021/09/02 06:10:25;;;;;;;;;36.75;30.75;;;;;17.25;56.82;102061.97;5018288;28;45446;-78
2021/09/02 06:12:51;;;;;;;;;41.75;35.25;;;;;17.21;56.62;102062.66;5028332;28;45468;-81
2021/09/02 06:15:17;;;;;;;;;38.50;32.75;;;;;17.20;56.92;102059.19;5022782;28;45399;-81
2021/09/02 06:17:43;;;;;;;;;39.00;32.00;;;;;17.21;56.96;102065.28;5022929;28;45865;-78
2021/09/02 06:20:10;;;;;;;;;37.25;30.25;;;;;17.23;56.75;102066.25;5020503;28;45596;-79
2021/09/02 06:22:35;;;;;;;;;50.00;36.25;;;;;17.21;57.02;102074.03;5017725;28;46136;-79
2021/09/02 06:25:02;;;;;;;;;40.75;33.25;;;;;17.22;56.83;102072.31;5033705;28;45370;-82
2021/09/02 06:27:28;;;;;;;;;35.25;31.00;;;;;17.24;56.90;102063.66;5044710;28;45250;-81
2021/09/02 06:29:54;;;;;;;;;43.75;35.00;;;;;17.21;57.18;102070.53;5043102;28;45507;-83
2021/09/02 06:32:20;;;;;;;;;40.00;34.50;;;;;17.19;57.20;102070.47;5026388;28;45413;-80
2021/09/02 06:34:45;;;;;;;;;47.75;34.00;;;;;17.18;56.81;102079.16;5040652;28;45289;-81
2021/09/02 06:37:11;;;;;;;;;48.50;34.00;;;;;17.19;57.01;102083.56;5028730;28;45492;-79
2021/09/02 06:39:37;;;;;;;;;36.75;31.00;;;;;17.19;56.95;102078.31;5038053;28;45427;-80
2021/09/02 06:42:03;;;;;;;;;41.25;35.00;;;;;17.21;56.87;102079.28;5036990;28;45701;-82
2021/09/02 06:44:28;;;;;;;;;40.50;34.00;;;;;17.23;57.09;102085.44;5035779;28;45812;-81
2021/09/02 06:46:54;;;;;;;;;36.75;31.25;;;;;17.24;56.82;102089.84;5037423;28;45194;-82
2021/09/02 06:49:20;;;;;;;;;36.25;32.00;;;;;17.29;56.99;102090.91;5032972;28;45492;-83
2021/09/02 06:51:47;;;;;;;;;35.50;32.25;;;;;17.27;56.97;102092.59;5019827;28;45629;-86
2021/09/02 06:54:13;;;;;;;;;38.75;31.50;;;;;17.30;57.16;102086.56;5031885;28;45820;-88
2021/09/02 06:56:38;;;;;;;;;35.50;32.75;;;;;17.32;56.62;102090.13;5039650;28;45437;-85
2021/09/02 06:59:04;;;;;;;;;38.25;31.25;;;;;17.33;56.94;102084.94;5044963;28;45597;-85
2021/09/02 07:01:30;;;;;;;;;36.00;33.00;;;;;17.36;56.89;102083.28;5029127;28;45483;-85
2021/09/02 07:03:55;;;;;;;;;40.25;34.25;;;;;17.36;56.93;102080.66;5038008;28;45404;-88
2021/09/02 07:06:21;;;;;;;;;34.25;30.00;;;;;17.33;56.85;102084.06;5017828;28;45395;-91
2021/09/02 07:08:47;;;;;;;;;42.00;34.50;;;;;17.33;57.15;102081.44;5025427;28;45636;-83
2021/09/02 07:11:13;;;;;;;;;39.00;32.00;;;;;17.34;57.04;102080.63;5020401;28;45884;-80
2021/09/02 07:13:39;;;;;;;;;42.00;28.75;;;;;17.39;56.94;102075.56;5021005;28;46077;-80
2021/09/02 07:16:05;;;;;;;;;42.50;33.25;;;;;17.44;56.88;102081.88;5028551;28;45389;-83
2021/09/02 07:18:31;;;;;;;;;35.75;29.50;;;;;17.46;57.07;102088.03;5030906;28;45266;-83
2021/09/02 07:20:57;;;;;;;;;38.75;30.00;;;;;17.47;56.82;102085.50;5030693;28;45997;-81
2021/09/02 07:23:25;;;;;;;;;33.75;27.00;;;;;17.51;56.83;102083.88;5031581;28;45559;-82
2021/09/02 07:25:51;;;;;;;;;38.50;28.50;;;;;17.52;56.99;102080.41;5030478;28;45394;-81
2021/09/02 07:28:16;;;;;;;;;38.75;29.50;;;;;17.57;56.91;102088.44;5025574;28;45612;-80
2021/09/02 07:30:43;;;;;;;;;37.25;30.25;;;;;17.61;56.68;102098.16;5033478;28;45541;-88
2021/09/02 07:33:11;;;;;;;;;35.25;32.00;;;;;17.62;56.71;102103.47;5036355;28;45235;-86
2021/09/02 07:35:39;;;;;;;;;30.75;28.75;;;;;17.66;57.03;102098.34;5037034;28;45254;-83
2021/09/02 07:38:06;;;;;;;;;36.00;28.25;;;;;17.68;57.03;102100.19;5029926;28;45333;-83
2021/09/02 07:40:32;;;;;;;;;31.75;26.25;;;;;17.73;56.62;102098.63;5030537;28;46232;-80
2021/09/02 07:42:58;;;;;;;;;34.50;26.00;;;;;17.78;56.67;102099.69;5028156;28;45492;-82
2021/09/02 07:45:23;;;;;;;;;29.50;24.25;;;;;17.84;56.80;102103.34;5017013;28;46670;-83
2021/09/02 07:47:49;;;;;;;;;26.25;24.50;;;;;17.89;56.59;102107.03;5030708;28;45350;-83
2021/09/02 07:50:15;;;;;;;;;33.00;27.00;;;;;17.94;55.94;102094.97;5024354;28;45488;-84
2021/09/02 07:52:41;;;;;;;;;32.50;24.25;;;;;17.95;56.52;102096.75;5022485;28;45454;-85
2021/09/02 07:55:09;;;;;;;;;29.50;23.75;;;;;17.98;56.28;102085.56;5031986;28;45506;-85
2021/09/02 07:57:35;;;;;;;;;27.25;24.75;;;;;18.01;56.11;102083.00;5036180;28;45422;-84
2021/09/02 08:00:01;;;;;;;;;26.00;23.25;;;;;18.00;56.39;102070.75;5025944;28;47022;-84
2021/09/02 08:02:26;;;;;;;;;31.25;27.00;;;;;18.05;56.20;102071.81;5032117;28;45469;-82
2021/09/02 08:04:52;;;;;;;;;32.00;26.00;;;;;18.09;56.24;102077.22;5026282;28;45419;-81
2021/09/02 08:07:17;;;;;;;;;30.00;25.25;;;;;18.13;56.19;102082.56;5020359;28;46536;-79
2021/09/02 08:09:44;;;;;;;;;32.00;27.75;;;;;18.16;55.90;102091.41;5017002;28;45889;-78
2021/09/02 08:12:10;;;;;;;;;29.50;26.25;;;;;18.18;55.95;102091.47;5028406;28;45724;-77
2021/09/02 08:14:36;;;;;;;;;31.75;26.50;;;;;18.19;56.07;102082.75;5029008;28;45508;-80
2021/09/02 08:17:02;;;;;;;;;24.50;20.75;;;;;18.21;56.00;102089.81;5024182;28;45795;-80
2021/09/02 08:19:27;;;;;;;;;28.25;22.75;;;;;18.21;55.81;102078.47;5040820;28;46272;-82
2021/09/02 08:21:53;;;;;;;;;25.25;23.75;;;;;18.22;56.04;102075.00;5019303;28;45294;-80
2021/09/02 08:24:19;;;;;;;;;21.75;20.25;;;;;18.27;55.80;102080.41;5022173;28;45477;-79
2021/09/02 08:26:44;;;;;;;;;34.00;24.25;;;;;18.29;55.87;102076.09;5036734;28;45845;-80
2021/09/02 08:29:10;;;;;;;;;36.50;26.25;;;;;18.31;55.89;102079.66;5030497;28;45932;-80
2021/09/02 08:31:36;;;;;;;;;27.50;24.00;;;;;18.33;56.04;102075.34;5042654;28;45477;-80
2021/09/02 08:34:01;;;;;;;;;29.00;24.50;;;;;18.36;56.10;102072.84;5016345;28;45437;-80
2021/09/02 08:36:27;;;;;;;;;22.75;20.75;;;;;18.39;55.93;102065.09;5035206;28;45515;-80
2021/09/02 08:38:53;;;;;;;;;32.00;25.25;;;;;18.43;56.12;102060.81;5036311;28;46194;-80
2021/09/02 08:41:20;;;;;;;;;28.75;23.50;;;;;18.45;55.85;102056.53;5018305;28;45839;-80
2021/09/02 08:43:47;;;;;;;;;30.00;24.50;;;;;18.46;56.13;102053.94;5017816;28;45394;-80
2021/09/02 08:46:14;;;;;;;;;28.75;24.50;;;;;18.47;56.18;102058.34;5038980;28;45180;-79
2021/09/02 08:48:45;;;;;;;;;28.00;25.00;;;;;18.50;56.18;102044.44;5060799;28;46738;-80
2021/09/02 08:51:11;;;;;;;;;28.75;24.75;;;;;18.53;55.90;102042.78;5037068;28;45410;-81
2021/09/02 08:53:36;;;;;;;;;31.25;25.25;;;;;18.56;55.83;102042.91;5038807;28;45492;-81
2021/09/02 08:56:03;;;;;;;;;21.25;18.00;;;;;18.59;55.65;102042.09;5028826;28;45347;-81
2021/09/02 08:58:30;;;;;;;;;24.25;22.25;;;;;18.63;56.33;102043.06;5017986;28;45519;-80
2021/09/02 09:00:56;;;;;;;;;29.25;26.00;;;;;18.65;56.14;102030.91;5027610;28;46026;-80
2021/09/02 09:03:24;;;;;;;;;30.25;24.25;;;;;18.69;56.05;102030.16;5038463;28;45402;-81
2021/09/02 09:05:57;;;;;;;;;26.50;24.50;;;;;18.72;55.88;102039.03;5033598;28;45593;-81
2021/09/02 09:08:36;;;;;;;;;28.75;26.25;;;;;18.74;56.14;102039.06;5018747;28;45859;-81
2021/09/02 09:11:21;;;;;;;;;34.75;26.00;;;;;18.78;56.21;102045.31;5018752;28;45894;-81
2021/09/02 09:13:48;;;;;;;;;31.00;26.50;;;;;18.82;55.79;102040.19;5018931;28;45892;-81
2021/09/02 09:16:14;;;;;;;;;29.75;23.75;;;;;18.85;55.71;102039.41;5034388;28;45258;-81
2021/09/02 09:18:45;;;;;;;;;24.25;18.25;;;;;18.90;55.52;102036.91;5036280;28;46697;-81
2021/09/02 09:21:17;;;;;;;;;28.00;24.00;;;;;18.95;55.90;102045.88;5021675;28;45284;-80
2021/09/02 09:24:06;;;;;;;;;28.00;24.00;;;;;19.01;56.09;102031.16;5038830;28;45417;-80
2021/09/02 09:26:34;;;;;;;;;27.50;24.00;;;;;19.03;56.08;102025.97;5037172;28;45177;-81
2021/09/02 09:29:02;;;;;;;;;25.00;19.25;;;;;19.06;55.90;102028.66;5038003;28;46143;-80
2021/09/02 09:31:34;;;;;;;;;31.25;24.25;;;;;19.10;55.87;102027.91;5037290;28;45827;-81
2021/09/02 09:34:03;;;;;;;;;30.25;24.75;;;;;19.12;55.59;102020.09;5038475;28;45470;-81
2021/09/02 09:36:31;;;;;;;;;29.25;25.00;;;;;19.17;55.92;102011.50;5033282;28;45539;-80
2021/09/02 09:39:17;;;;;;;;;26.50;23.25;;;;;19.21;55.37;102007.25;5018101;28;45413;-80
2021/09/02 09:41:47;;;;;;;;;28.00;21.75;;;;;19.23;55.65;102000.28;5033661;28;45659;-82
2021/09/02 09:44:21;;;;;;;;;26.25;22.25;;;;;19.26;55.72;102004.75;5038091;28;45342;-81
2021/09/02 09:47:07;;;;;;;;;29.75;24.75;;;;;19.29;55.55;102010.97;5038367;28;45480;-81
2021/09/02 09:49:44;;;;;;;;;27.00;22.50;;;;;19.34;55.35;102011.09;5034960;28;45439;-81
2021/09/02 09:52:27;;;;;;;;;34.00;25.75;;;;;19.39;55.39;101996.34;5040943;28;45718;-81
2021/09/02 09:54:59;;;;;;;;;23.75;21.00;;;;;19.45;55.70;101999.16;5037801;28;45413;-81
2021/09/02 09:57:28;;;;;;;;;28.75;26.00;;;;;19.50;55.12;101996.66;5038225;28;45480;-80
2021/09/02 09:59:59;;;;;;;;;26.25;24.00;;;;;19.55;55.41;101994.13;5028975;28;46078;-81
2021/09/02 10:02:25;;;;;;;;;26.00;24.00;;;;;19.61;55.14;101991.66;5036385;28;45773;-81
2021/09/02 10:04:52;;;;;;;;;32.25;27.00;;;;;19.65;55.23;101983.03;5035827;28;45425;-81
2021/09/02 10:07:20;;;;;;;;;25.00;23.25;;;;;19.70;54.93;101989.31;5040336;28;45468;-81
2021/09/02 10:09:50;;;;;;;;;31.75;25.75;;;;;19.74;55.39;101990.25;5032756;28;45413;-81
2021/09/02 10:12:16;;;;;;;;;33.00;29.75;;;;;19.82;54.92;101993.97;5018031;28;45759;-81
2021/09/02 10:14:42;;;;;;;;;26.50;23.50;;;;;19.86;55.17;101982.72;5018057;28;45327;-81
2021/09/02 10:17:08;;;;;;;;;32.50;28.00;;;;;19.91;55.14;101982.84;5017803;28;45339;-81
2021/09/02 10:19:35;;;;;;;;;26.00;25.00;;;;;19.96;54.73;101975.94;5030520;28;45429;-80
2021/09/02 10:22:03;;;;;;;;;24.50;21.25;;;;;20.02;54.37;101978.75;5031827;28;45784;-81
2021/09/02 10:24:35;;;;;;;;;28.50;26.75;;;;;20.08;54.31;101980.63;5036305;28;45769;-81
2021/09/02 10:27:03;;;;;;;;;27.00;20.50;;;;;20.14;54.59;101974.63;5036369;28;45389;-82
2021/09/02 10:29:36;;;;;;;;;26.00;22.00;;;;;20.18;53.97;101973.84;5037035;28;45381;-82
2021/09/02 10:32:24;;;;;;;;;24.00;22.00;;;;;20.25;53.86;101976.66;5037008;28;45269;-82
2021/09/02 10:34:49;;;;;;;;;25.75;21.50;;;;;20.29;54.07;101972.34;5037311;28;45406;-82
2021/09/02 10:37:33;;;;;;;;;22.75;17.75;;;;;20.35;53.50;101963.72;5037734;28;45337;-82
2021/09/02 10:39:59;;;;;;;;;24.00;20.75;;;;;20.36;53.41;101955.84;5036669;28;46073;-82
2021/09/02 10:43:00;;;;;;;;;27.75;24.50;;;;;20.45;53.45;101962.19;5036917;28;45429;-81
2021/09/02 10:45:26;;;;;;;;;26.00;24.25;;;;;20.48;53.00;101963.13;4995168;28;45512;-81
2021/09/02 10:48:00;;;;;;;;;21.75;19.75;;;;;20.52;52.78;101964.09;5024586;28;45666;-80
2021/09/02 10:50:28;;;;;;;;;20.25;18.75;;;;;20.55;52.55;101958.91;5036888;28;45688;-81
2021/09/02 10:53:10;;;;;;;;;18.75;18.50;;;;;20.59;52.13;101967.75;5036807;28;45463;-81
2021/09/02 10:55:41;;;;;;;;;23.50;22.00;;;;;20.64;52.48;101971.34;5035432;28;45287;-81
2021/09/02 10:58:09;;;;;;;;;18.75;18.50;;;;;20.72;52.67;101957.50;5038254;28;45426;-81
2021/09/02 11:00:38;;;;;;;;;20.25;17.75;;;;;20.77;52.55;101947.13;5037446;28;45358;-82
2021/09/02 11:03:25;;;;;;;;;22.50;15.00;;;;;20.81;52.30;101950.69;5037048;28;45209;-81
2021/09/02 11:05:57;;;;;;;;;18.75;17.00;;;;;20.86;52.00;101959.59;5036731;28;45491;-81
2021/09/02 11:08:37;;;;;;;;;27.75;19.25;;;;;20.90;51.64;101945.59;5036955;28;45249;-81
2021/09/02 11:11:16;;;;;;;;;22.00;17.50;;;;;20.96;52.14;101950.09;5036567;28;45349;-80